Terminal Aerodrome Forecast
Issued by NWS

Current Version | Previous Version | Graphics & Text | Print | Product List | Glossary On
Versions: 1 2 3 4 5 6 7 8 9 10 11 12 13 14 15 16 17 18 19 20
000
FTUS41 KILN 240542
TAFLCK
TAF
KLCK 240542Z 2406/2506 16006KT P6SM BKN080
     FM241300 18010G18KT P6SM SCT050
     FM241600 19016G26KT P6SM BKN050
     FM250200 18011KT P6SM -SHRA VCTS OVC050CB=

USA.gov is the U.S. government's official web portal to all federal, state and local government web resources and services.